Time;durP1;ratioP1;P1;durP2;ratioP2;P2;SDS_P1;SDS_P2;PMS_P1;PMS_P2;Temp;Humidity;BMP_temperature;BMP_pressure;BME280_temperature;BME280_humidity;BME280_pressure;Samples;Min_cycle;Max_cycle;Signal;HPM_P1;HPM_P2
2022/05/10 00:02:17;;;;;;;11.23;6.15;;;;;;;12.39;nan;101897.59;5021812;28;20033;-52
2022/05/10 00:04:50;;;;;;;8.70;5.10;;;;;;;12.41;nan;101895.75;5031044;28;20029;-47
2022/05/10 00:07:17;;;;;;;9.50;6.22;;;;;;;12.39;nan;101911.66;5013429;28;20034;-45
2022/05/10 00:09:42;;;;;;;9.45;5.55;;;;;;;12.39;nan;101900.22;5031243;28;20544;-46
2022/05/10 00:12:07;;;;;;;9.15;5.80;;;;;;;12.38;nan;101891.44;5020558;28;20049;-46
2022/05/10 00:14:33;;;;;;;15.75;6.60;;;;;;;12.40;nan;101889.59;5013211;28;20484;-50
2022/05/10 00:16:58;;;;;;;11.68;5.80;;;;;;;12.40;nan;101881.69;5015272;28;20041;-47
2022/05/10 00:19:27;;;;;;;8.00;5.40;;;;;;;12.35;nan;101886.22;5030776;28;20037;-46
2022/05/10 00:21:53;;;;;;;6.97;5.57;;;;;;;12.37;nan;101880.91;5018452;28;20028;-48
2022/05/10 00:24:18;;;;;;;7.63;5.90;;;;;;;12.06;nan;101832.34;5029609;28;20037;-46
2022/05/10 00:26:44;;;;;;;7.97;5.65;;;;;;;12.32;nan;101880.13;5030755;28;20042;-54
2022/05/10 00:29:10;;;;;;;10.90;7.15;;;;;;;12.36;nan;101887.09;5030655;28;20067;-49
2022/05/10 00:31:35;;;;;;;12.02;7.13;;;;;;;12.36;nan;101873.88;5030698;28;20312;-49
2022/05/10 00:34:01;;;;;;;11.98;7.45;;;;;;;12.36;nan;101881.81;5031201;28;20041;-48
2022/05/10 00:36:27;;;;;;;11.88;7.13;;;;;;;12.33;nan;101860.75;5030432;28;20436;-50
2022/05/10 00:38:53;;;;;;;12.32;7.00;;;;;;;12.41;nan;101864.94;5030719;28;20096;-50
2022/05/10 00:41:29;;;;;;;12.27;6.32;;;;;;;12.34;nan;101851.94;5029623;28;20464;-46
2022/05/10 00:44:14;;;;;;;12.75;6.45;;;;;;;12.50;nan;101860.34;5019766;28;20431;-48
2022/05/10 00:46:44;;;;;;;11.80;6.93;;;;;;;12.50;nan;101853.28;5034329;28;20041;-48
2022/05/10 00:49:10;;;;;;;12.32;6.68;;;;;;;12.62;nan;101860.06;5048465;28;20038;-44
2022/05/10 00:51:45;;;;;;;12.38;6.88;;;;;;;12.67;nan;101858.16;5033867;28;20054;-49
2022/05/10 00:54:35;;;;;;;9.25;6.75;;;;;;;12.73;nan;101858.88;5033142;28;20049;-52
2022/05/10 00:57:09;;;;;;;10.90;6.90;;;;;;;12.72;nan;101837.81;5033853;28;20044;-47
2022/05/10 00:59:47;;;;;;;9.13;6.55;;;;;;;12.86;nan;101848.88;5034188;28;20034;-44
2022/05/10 01:02:47;;;;;;;12.73;6.38;;;;;;;12.91;nan;101847.84;5017524;28;20040;-50
2022/05/10 01:05:36;;;;;;;11.30;6.90;;;;;;;13.04;nan;101844.88;5034321;28;20033;-48
2022/05/10 01:08:21;;;;;;;11.45;6.38;;;;;;;12.79;nan;101784.75;5000595;28;20400;-52
2022/05/10 01:10:56;;;;;;;12.07;7.07;;;;;;;13.16;nan;101844.59;5016610;28;20530;-47
2022/05/10 01:13:28;;;;;;;11.50;5.70;;;;;;;12.92;nan;101778.25;5016190;28;20396;-45
2022/05/10 01:16:31;;;;;;;11.90;6.15;;;;;;;13.33;nan;101835.28;5016503;28;20032;-46
2022/05/10 01:18:57;;;;;;;11.90;6.55;;;;;;;13.07;nan;101784.88;4956846;28;20466;-52
2022/05/10 01:21:53;;;;;;;12.00;6.30;;;;;;;13.45;nan;101834.09;4972918;28;20156;-48
2022/05/10 01:24:31;;;;;;;10.65;6.18;;;;;;;13.57;nan;101836.38;5014039;28;20079;-51
2022/05/10 01:27:31;;;;;;;9.57;5.97;;;;;;;13.70;nan;101839.50;5016307;28;20473;-45
2022/05/10 01:30:02;;;;;;;10.23;6.13;;;;;;;13.74;nan;101839.41;5016126;28;20033;-46
2022/05/10 01:35:22;;;;;;;10.57;5.87;;;;;;;13.49;nan;101754.59;5018910;28;20039;-50
2022/05/10 01:37:52;;;;;;;9.88;5.82;;;;;;;13.97;nan;101822.81;5032465;28;20065;-46
2022/05/10 01:40:24;;;;;;;9.77;5.80;;;;;;;14.01;nan;101817.38;5015852;28;20030;-50
2022/05/10 01:42:58;;;;;;;12.43;5.93;;;;;;;13.96;nan;101813.13;5012949;28;20076;-50
2022/05/10 01:45:37;;;;;;;12.02;6.20;;;;;;;14.01;nan;101813.84;5031588;28;20120;-50
2022/05/10 01:48:04;;;;;;;9.70;5.53;;;;;;;14.02;nan;101800.59;5033511;28;20025;-51
2022/05/10 01:50:53;;;;;;;10.60;5.55;;;;;;;13.72;nan;101735.38;5046961;28;20053;-46
2022/05/10 01:53:30;;;;;;;8.77;5.68;;;;;;;14.01;nan;101790.03;5022391;28;20090;-45
2022/05/10 01:56:02;;;;;;;9.38;5.70;;;;;;;13.85;nan;101755.25;5032308;28;20025;-45
2022/05/10 01:58:34;;;;;;;9.02;5.22;;;;;;;13.68;nan;101731.09;5029865;28;20087;-46
2022/05/10 02:01:01;;;;;;;9.50;5.70;;;;;;;13.70;nan;101726.63;5032767;28;20034;-49
2022/05/10 02:03:36;;;;;;;10.95;6.65;;;;;;;14.06;nan;101785.47;5024953;28;20032;-45
2022/05/10 02:06:06;;;;;;;11.65;6.13;;;;;;;14.06;nan;101791.63;5033152;28;20136;-47
2022/05/10 02:09:02;;;;;;;14.02;6.32;;;;;;;14.06;nan;101788.13;5016177;28;20508;-46
2022/05/10 02:11:28;;;;;;;8.63;5.47;;;;;;;13.97;nan;101754.00;5008253;28;20036;-48
2022/05/10 02:14:06;;;;;;;7.60;5.82;;;;;;;14.08;nan;101776.56;5008720;28;20120;-49
2022/05/10 02:16:56;;;;;;;7.45;5.78;;;;;;;14.06;nan;101759.88;5032605;28;20091;-44
2022/05/10 02:19:27;;;;;;;9.40;6.05;;;;;;;14.09;nan;101762.41;5004336;28;20017;-48
2022/05/10 02:21:59;;;;;;;10.52;5.95;;;;;;;14.05;nan;101744.03;5024960;28;20533;-49
2022/05/10 02:24:43;;;;;;;8.57;5.53;;;;;;;14.12;nan;101750.88;5031037;28;20026;-45
2022/05/10 02:27:18;;;;;;;9.55;5.63;;;;;;;13.81;nan;101691.88;5010604;28;20483;-48
2022/05/10 02:29:59;;;;;;;11.10;6.18;;;;;;;14.15;nan;101745.47;5032550;28;20514;-45
2022/05/10 02:35:21;;;;;;;6.32;5.32;;;;;;;14.08;nan;101739.50;5032432;28;20041;-45
2022/05/10 02:37:47;;;;;;;9.25;5.88;;;;;;;14.12;nan;101750.88;4999986;28;20037;-45
2022/05/10 02:40:13;;;;;;;13.40;6.97;;;;;;;13.99;nan;101718.63;5027182;28;20040;-47
2022/05/10 02:42:39;;;;;;;12.35;6.18;;;;;;;14.04;nan;101732.56;5032076;28;20030;-51
2022/05/10 02:45:06;;;;;;;9.95;5.80;;;;;;;13.79;nan;101678.69;5027392;28;20480;-46
2022/05/10 02:47:42;;;;;;;10.40;6.53;;;;;;;14.01;nan;101706.19;5037711;28;20063;-51
2022/05/10 02:50:27;;;;;;;10.20;6.43;;;;;;;13.78;nan;101676.09;5031999;28;20041;-48
2022/05/10 02:52:53;;;;;;;9.80;6.20;;;;;;;13.79;nan;101677.81;5017266;28;20049;-48
2022/05/10 02:55:24;;;;;;;14.88;6.30;;;;;;;14.13;nan;101741.16;5019260;28;20049;-45
2022/05/10 02:57:50;;;;;;;;;;;;;;;14.12;nan;101724.38;5030968;28;20033;-43
2022/05/10 03:00:15;;;;;;;12.23;6.65;;;;;;;14.09;nan;101717.41;5031621;28;19978;-45
2022/05/10 03:02:44;;;;;;;13.38;7.43;;;;;;;14.09;nan;101721.84;5029717;28;20098;-46
2022/05/10 03:05:13;;;;;;;11.75;6.80;;;;;;;14.10;nan;101712.97;5030114;28;20412;-47
2022/05/10 03:07:38;;;;;;;11.55;6.70;;;;;;;14.09;nan;101714.78;5031121;28;20079;-48
2022/05/10 03:10:05;;;;;;;10.48;6.95;;;;;;;14.05;nan;101707.84;5031113;28;20113;-47
2022/05/10 03:12:30;;;;;;;10.18;6.85;;;;;;;13.75;nan;101637.38;5028583;28;20500;-47
2022/05/10 03:14:57;;;;;;;10.55;7.35;;;;;;;14.16;nan;101702.16;5031490;28;20025;-47
2022/05/10 03:17:22;;;;;;;11.30;6.30;;;;;;;13.82;nan;101638.03;5024174;28;20480;-46
2022/05/10 03:19:48;;;;;;;15.95;7.55;;;;;;;13.90;nan;101649.22;5023270;28;20030;-50
2022/05/10 03:22:13;;;;;;;9.00;6.32;;;;;;;14.22;nan;101701.09;5031292;28;20380;-49
2022/05/10 03:24:39;;;;;;;10.50;7.38;;;;;;;14.15;nan;101689.00;5029879;28;20029;-50
2022/05/10 03:27:06;;;;;;;8.98;6.63;;;;;;;14.23;nan;101701.06;5031355;28;20480;-46
2022/05/10 03:29:32;;;;;;;11.63;6.93;;;;;;;14.22;nan;101701.97;5023128;28;20029;-49
2022/05/10 03:31:57;;;;;;;10.15;6.80;;;;;;;14.08;nan;101680.38;5024476;28;20045;-50
2022/05/10 03:37:07;;;;;;;9.15;6.57;;;;;;;14.20;nan;101698.50;5017524;28;20554;-51
2022/05/10 03:39:32;;;;;;;9.60;6.80;;;;;;;14.23;nan;101702.84;5031101;28;20045;-48
2022/05/10 03:41:58;;;;;;;9.98;6.88;;;;;;;14.16;nan;101677.47;5031106;28;20038;-45
2022/05/10 03:44:23;;;;;;;12.63;7.40;;;;;;;13.81;nan;101610.69;5011226;28;20041;-47
2022/05/10 03:46:49;;;;;;;12.73;7.05;;;;;;;13.92;nan;101637.66;5031112;28;20388;-44
2022/05/10 03:49:15;;;;;;;11.10;7.55;;;;;;;13.88;nan;101628.13;5031175;28;20392;-50
2022/05/10 03:51:40;;;;;;;11.02;7.32;;;;;;;14.11;nan;101675.00;5037885;28;20053;-47
2022/05/10 03:54:06;;;;;;;12.80;7.60;;;;;;;13.87;nan;101631.66;5031025;28;20501;-49
2022/05/10 03:56:33;;;;;;;14.98;7.65;;;;;;;14.18;nan;101673.88;5031112;28;20026;-49
2022/05/10 03:58:59;;;;;;;11.77;7.38;;;;;;;14.09;nan;101661.81;5031247;28;20397;-50
2022/05/10 04:01:24;;;;;;;10.25;7.95;;;;;;;14.15;nan;101671.34;5002994;28;20048;-47
2022/05/10 04:03:49;;;;;;;10.98;7.90;;;;;;;14.11;nan;101667.03;5031003;28;20431;-48
2022/05/10 04:06:15;;;;;;;12.07;7.32;;;;;;;14.17;nan;101676.56;5031043;28;20349;-46
2022/05/10 04:08:41;;;;;;;11.27;8.13;;;;;;;14.20;nan;101668.50;5029494;28;20041;-47
2022/05/10 04:11:08;;;;;;;13.88;7.75;;;;;;;14.14;nan;101651.06;5031003;28;20048;-49
2022/05/10 04:13:34;;;;;;;13.00;7.40;;;;;;;14.28;nan;101666.47;5021811;28;20037;-49
2022/05/10 04:15:59;;;;;;;13.05;8.10;;;;;;;14.26;nan;101653.28;5030959;28;20434;-51
2022/05/10 04:18:26;;;;;;;14.85;8.00;;;;;;;14.11;nan;101598.22;5030724;28;20488;-44
2022/05/10 04:20:51;;;;;;;12.95;7.43;;;;;;;14.49;nan;101658.69;5033710;28;20467;-49
2022/05/10 04:23:17;;;;;;;11.65;7.75;;;;;;;14.63;nan;101664.34;5034557;28;20120;-51
2022/05/10 04:25:43;;;;;;;11.00;7.10;;;;;;;14.43;nan;101611.22;5025783;28;20111;-48
2022/05/10 04:28:08;;;;;;;10.50;8.00;;;;;;;14.79;nan;101663.78;5033535;28;20473;-46
2022/05/10 04:30:33;;;;;;;11.40;8.00;;;;;;;14.85;nan;101655.63;5034577;28;20029;-46
2022/05/10 04:32:59;;;;;;;12.13;7.85;;;;;;;14.90;nan;101657.16;5034566;28;20484;-47
2022/05/10 04:35:24;;;;;;;13.32;8.93;;;;;;;14.95;nan;101662.28;5034482;28;20033;-49
2022/05/10 04:37:49;;;;;;;10.88;7.68;;;;;;;14.97;nan;101663.13;5018432;28;20049;-48
2022/05/10 04:43:05;;;;;;;16.27;8.88;;;;;;;15.11;nan;101666.97;5020900;28;20051;-47
2022/05/10 04:45:30;;;;;;;14.15;8.30;;;;;;;15.16;nan;101659.69;5016446;28;20033;-47
2022/05/10 04:47:56;;;;;;;15.07;7.85;;;;;;;15.18;nan;101652.53;5034559;28;20369;-52
2022/05/10 04:50:21;;;;;;;12.43;8.68;;;;;;;15.27;nan;101666.38;5018817;28;20106;-45
2022/05/10 04:52:46;;;;;;;15.57;8.93;;;;;;;15.31;nan;101652.94;5034271;28;20465;-47
2022/05/10 04:55:12;;;;;;;13.35;8.57;;;;;;;15.34;nan;101654.59;5034213;28;20041;-45
2022/05/10 04:57:38;;;;;;;15.27;8.50;;;;;;;15.36;nan;101650.09;5008289;28;20037;-46
2022/05/10 05:00:07;;;;;;;13.85;8.35;;;;;;;15.13;nan;101612.09;5033978;28;20029;-48
2022/05/10 05:02:32;;;;;;;12.95;9.05;;;;;;;15.45;nan;101652.38;5033680;28;20033;-47
2022/05/10 05:04:57;;;;;;;18.60;9.80;;;;;;;15.21;nan;101595.88;5033878;28;20453;-49
2022/05/10 05:07:23;;;;;;;12.27;8.20;;;;;;;15.57;nan;101650.16;5033641;28;20109;-47
2022/05/10 05:09:48;;;;;;;12.98;9.15;;;;;;;15.36;nan;101597.91;5034023;28;20041;-45
2022/05/10 05:12:13;;;;;;;17.05;8.95;;;;;;;15.73;nan;101653.06;5033685;28;20440;-45
2022/05/10 05:14:39;;;;;;;17.00;8.73;;;;;;;15.83;nan;101661.50;5032315;28;20521;-46
2022/05/10 05:17:04;;;;;;;14.57;8.82;;;;;;;15.79;nan;101644.81;5029037;28;20083;-45
2022/05/10 05:19:29;;;;;;;16.13;9.40;;;;;;;16.02;nan;101667.78;5022644;28;20123;-50
2022/05/10 05:21:55;;;;;;;16.55;9.10;;;;;;;16.08;nan;101675.50;5033955;28;20037;-48
2022/05/10 05:24:20;;;;;;;15.82;8.63;;;;;;;16.14;nan;101683.22;5033973;28;20064;-45
2022/05/10 05:26:47;;;;;;;15.00;9.82;;;;;;;15.91;nan;101609.81;5033548;28;20026;-46
2022/05/10 05:29:12;;;;;;;16.73;9.43;;;;;;;16.30;nan;101679.84;5027813;28;20469;-46
2022/05/10 05:31:38;;;;;;;17.40;8.68;;;;;;;16.37;nan;101683.09;5032278;28;20188;-49
2022/05/10 05:34:03;;;;;;;16.63;9.18;;;;;;;16.11;nan;101631.06;5031816;28;20037;-46
2022/05/10 05:36:29;;;;;;;14.43;8.93;;;;;;;16.18;nan;101624.56;5033007;28;20034;-47
2022/05/10 05:38:54;;;;;;;13.88;8.52;;;;;;;16.56;nan;101683.19;5017610;28;20041;-50
2022/05/10 05:41:19;;;;;;;13.48;8.65;;;;;;;16.37;nan;101643.25;5033476;28;20045;-46
2022/05/10 05:43:45;;;;;;;17.33;9.10;;;;;;;16.70;nan;101688.75;5024633;28;20025;-53
2022/05/10 05:46:10;;;;;;;18.05;9.82;;;;;;;16.78;nan;101679.50;5033369;28;20038;-46
2022/05/10 05:48:37;;;;;;;14.20;8.52;;;;;;;16.56;nan;101614.09;5032744;28;20091;-46
2022/05/10 05:51:02;;;;;;;15.10;9.48;;;;;;;16.96;nan;101669.00;5032255;28;20047;-52
2022/05/10 05:53:28;;;;;;;17.00;9.57;;;;;;;16.98;nan;101649.38;5032614;28;20392;-46
2022/05/10 05:55:53;;;;;;;17.63;9.55;;;;;;;17.15;nan;101662.75;5030927;28;20483;-49
2022/05/10 05:58:19;;;;;;;18.92;10.00;;;;;;;17.25;nan;101650.72;4998227;28;20034;-50
2022/05/10 06:00:45;;;;;;;14.70;9.02;;;;;;;17.21;nan;101638.53;5032478;28;20026;-48
2022/05/10 06:03:10;;;;;;;14.50;9.55;;;;;;;17.39;nan;101658.06;5032294;28;20075;-50
2022/05/10 06:05:36;;;;;;;18.20;9.25;;;;;;;17.19;nan;101616.44;5021892;28;20123;-48
2022/05/10 06:08:03;;;;;;;14.70;8.77;;;;;;;17.50;nan;101652.22;5032422;28;20041;-45
2022/05/10 06:10:29;;;;;;;14.25;9.20;;;;;;;17.33;nan;101621.13;5032346;28;20033;-46
2022/05/10 06:12:54;;;;;;;13.05;8.77;;;;;;;17.63;nan;101648.09;5032379;28;20040;-52
2022/05/10 06:15:21;;;;;;;18.75;9.18;;;;;;;17.67;nan;101662.97;5032349;28;20037;-46
2022/05/10 06:17:47;;;;;;;15.55;9.52;;;;;;;17.51;nan;101627.34;5032309;28;20053;-49
2022/05/10 06:20:15;;;;;;;15.68;9.35;;;;;;;17.78;nan;101656.16;5032350;28;20042;-46
2022/05/10 06:22:45;;;;;;;13.65;8.38;;;;;;;17.84;nan;101653.19;5032313;28;20064;-49
2022/05/10 06:25:12;;;;;;;14.07;8.38;;;;;;;17.60;nan;101600.31;5032187;28;20168;-46
2022/05/10 06:27:38;;;;;;;15.85;8.82;;;;;;;17.98;nan;101636.53;5032456;28;20136;-48
2022/05/10 06:30:03;;;;;;;12.90;8.25;;;;;;;18.10;nan;101649.22;5030918;28;20123;-47
2022/05/10 06:32:31;;;;;;;14.18;7.90;;;;;;;18.17;nan;101641.78;5031841;28;20176;-46
2022/05/10 06:35:00;;;;;;;18.35;10.02;;;;;;;17.95;nan;101588.72;5016341;28;20599;-51
2022/05/10 06:40:12;;;;;;;10.98;7.53;;;;;;;18.04;nan;101580.25;5032036;28;20048;-48
2022/05/10 06:42:38;;;;;;;10.73;6.57;;;;;;;18.17;nan;101586.69;5031322;28;20018;-48
2022/05/10 06:45:08;;;;;;;15.68;8.10;;;;;;;18.52;nan;101632.88;5031451;28;20487;-51
2022/05/10 06:47:34;;;;;;;12.57;7.37;;;;;;;18.56;nan;101609.56;5031553;28;20037;-52
2022/05/10 06:50:00;;;;;;;14.15;7.22;;;;;;;18.49;nan;101585.03;5031207;28;20049;-48
2022/05/10 06:52:25;;;;;;;12.60;7.72;;;;;;;18.87;nan;101623.84;5027883;28;20120;-50
2022/05/10 06:54:50;;;;;;;14.45;7.18;;;;;;;18.71;nan;101569.59;5031240;28;20025;-48
2022/05/10 06:57:16;;;;;;;13.70;6.72;;;;;;;19.06;nan;101613.00;5031235;28;20068;-47
2022/05/10 06:59:43;;;;;;;9.88;6.35;;;;;;;18.79;nan;101559.38;5031063;28;20038;-46
2022/05/10 07:02:08;;;;;;;12.10;7.00;;;;;;;18.89;nan;101579.25;5016408;28;20894;-48
2022/05/10 07:04:33;;;;;;;11.02;7.10;;;;;;;19.23;nan;101625.44;5028198;28;20128;-47
2022/05/10 07:06:59;;;;;;;12.52;7.00;;;;;;;19.25;nan;101610.19;5014562;28;20447;-46
2022/05/10 07:09:24;;;;;;;13.05;7.55;;;;;;;19.29;nan;101609.94;5030062;28;20495;-45
2022/05/10 07:11:49;;;;;;;12.77;6.93;;;;;;;19.34;nan;101609.66;5029776;28;20041;-49
2022/05/10 07:14:15;;;;;;;8.38;6.82;;;;;;;18.99;nan;101537.78;5015499;28;20041;-48
2022/05/10 07:16:40;;;;;;;10.93;7.35;;;;;;;19.45;nan;101602.81;5029357;28;20033;-50
2022/05/10 07:19:05;;;;;;;13.15;6.82;;;;;;;19.44;nan;101597.56;5029694;28;20057;-47
2022/05/10 07:21:31;;;;;;;15.05;7.15;;;;;;;19.42;nan;101602.09;5021414;28;20045;-45
2022/05/10 07:23:57;;;;;;;9.20;6.07;;;;;;;19.22;nan;101564.97;5022109;28;20547;-46
2022/05/10 07:26:23;;;;;;;11.32;6.85;;;;;;;19.52;nan;101606.00;5029268;28;20047;-47
2022/05/10 07:28:48;;;;;;;10.52;6.18;;;;;;;19.56;nan;101605.72;5029159;28;20029;-46
2022/05/10 07:31:14;;;;;;;10.38;5.80;;;;;;;19.62;nan;101616.03;5029191;28;20396;-46
2022/05/10 07:33:39;;;;;;;10.23;6.63;;;;;;;19.66;nan;101600.72;5029139;28;20431;-47
2022/05/10 07:38:49;;;;;;;11.23;5.88;;;;;;;20.66;nan;101590.19;5013319;28;20048;-52
2022/05/10 07:41:18;;;;;;;9.68;6.05;;;;;;;21.21;nan;101570.63;5022638;28;20126;-46
2022/05/10 07:43:44;;;;;;;10.20;6.32;;;;;;;21.74;nan;101597.41;5028586;28;20033;-45
2022/05/10 07:46:09;;;;;;;10.50;5.95;;;;;;;21.95;nan;101592.44;5028655;28;20492;-47
2022/05/10 07:48:35;;;;;;;8.65;5.50;;;;;;;21.93;nan;101601.56;5028717;28;20041;-48
2022/05/10 07:51:03;;;;;;;6.75;5.28;;;;;;;21.83;nan;101590.59;5013637;28;20079;-49
2022/05/10 07:53:31;;;;;;;11.52;5.38;;;;;;;22.03;nan;101579.41;5029259;28;20354;-46
2022/05/10 07:55:57;;;;;;;7.97;5.20;;;;;;;22.57;nan;101576.50;5021309;28;20416;-49
2022/05/10 07:58:22;;;;;;;7.07;4.20;;;;;;;22.86;nan;101581.56;5013859;28;20057;-50
2022/05/10 08:00:47;;;;;;;9.05;5.20;;;;;;;23.22;nan;101595.97;5026890;28;20037;-51
2022/05/10 08:03:21;;;;;;;18.02;5.25;;;;;;;23.40;nan;101557.03;5015541;28;20040;-51
2022/05/10 08:05:47;;;;;;;9.50;4.55;;;;;;;23.99;nan;101601.75;5029012;28;20037;-54
2022/05/10 08:08:13;;;;;;;8.23;4.28;;;;;;;24.32;nan;101595.63;5029110;28;20063;-49
2022/05/10 08:10:43;;;;;;;9.48;4.47;;;;;;;24.57;nan;101594.59;5010737;28;20025;-46
2022/05/10 08:13:11;;;;;;;5.90;3.75;;;;;;;24.63;nan;101594.94;5029074;28;20052;-53
2022/05/10 08:15:37;;;;;;;7.45;3.65;;;;;;;24.52;nan;101586.00;5018634;28;20049;-45
2022/05/10 08:18:02;;;;;;;7.45;3.70;;;;;;;24.49;nan;101592.47;5032770;28;20107;-47
2022/05/10 08:20:28;;;;;;;7.97;3.67;;;;;;;24.32;nan;101570.56;5025612;28;20072;-52
2022/05/10 08:22:53;;;;;;;6.88;3.92;;;;;;;24.25;nan;101591.72;5028626;28;20033;-51
2022/05/10 08:25:18;;;;;;;4.43;3.42;;;;;;;24.20;nan;101583.13;5029778;28;20120;-46
2022/05/10 08:27:44;;;;;;;6.80;3.78;;;;;;;23.90;nan;101542.47;5029310;28;20041;-46
2022/05/10 08:30:09;;;;;;;7.05;3.92;;;;;;;24.18;nan;101589.63;5029178;28;20060;-52
2022/05/10 08:32:35;;;;;;;6.82;3.50;;;;;;;23.70;nan;101518.94;5028960;28;20083;-48
2022/05/10 08:35:00;;;;;;;10.15;4.78;;;;;;;23.80;nan;101590.69;5029248;28;20064;-56
2022/05/10 08:37:26;;;;;;;6.43;3.75;;;;;;;23.58;nan;101590.59;5028484;28;20125;-50
2022/05/10 08:39:51;;;;;;;6.18;4.05;;;;;;;23.47;nan;101586.00;5029151;28;20369;-46
2022/05/10 08:42:20;;;;;;;6.07;3.65;;;;;;;23.37;nan;101587.66;5029110;28;20443;-55
2022/05/10 08:44:55;;;;;;;6.18;3.80;;;;;;;23.62;nan;101583.16;5026865;28;20120;-50
2022/05/10 08:47:21;;;;;;;6.20;4.10;;;;;;;24.30;nan;101600.28;5016656;28;20476;-49
2022/05/10 08:49:48;;;;;;;12.27;4.30;;;;;;;25.13;nan;101599.00;5018371;28;20403;-52
2022/05/10 08:52:15;;;;;;;7.85;4.22;;;;;;;25.81;nan;101599.69;5029098;28;20484;-47
2022/05/10 08:54:41;;;;;;;11.10;4.07;;;;;;;25.39;nan;101548.38;5027898;28;20477;-50
2022/05/10 08:57:24;;;;;;;8.75;4.80;;;;;;;24.70;nan;101538.78;5027784;28;20057;-51
2022/05/10 09:00:05;;;;;;;5.25;3.92;;;;;;;24.36;nan;101613.28;5029459;28;20029;-47
2022/05/10 09:02:46;;;;;;;;;;;;;;;24.05;nan;101600.44;5029163;28;20645;-47
2022/05/10 09:05:35;;;;;;;6.13;4.18;;;;;;;23.38;nan;101538.31;5029210;28;19924;-50
2022/05/10 09:08:15;;;;;;;6.38;4.80;;;;;;;23.58;nan;101595.13;5025855;28;20048;-49
2022/05/10 09:10:52;;;;;;;6.97;4.20;;;;;;;23.07;nan;101560.34;5028214;28;20053;-48
2022/05/10 09:13:19;;;;;;;6.40;5.10;;;;;;;23.27;nan;101612.59;5032157;28;20436;-49
2022/05/10 09:16:04;;;;;;;6.10;4.70;;;;;;;22.75;nan;101561.81;5023365;28;20087;-48
2022/05/10 09:18:37;;;;;;;5.30;4.68;;;;;;;22.53;nan;101561.59;4998096;28;20075;-52
2022/05/10 09:21:20;;;;;;;7.50;5.40;;;;;;;22.46;nan;101558.50;5031980;28;20036;-46
2022/05/10 09:24:14;;;;;;;8.25;5.10;;;;;;;22.69;nan;101607.88;5030842;28;20227;-52
2022/05/10 09:26:42;;;;;;;6.43;4.10;;;;;;;22.49;nan;101563.66;5008146;28;20046;-46
2022/05/10 09:29:32;;;;;;;7.95;4.78;;;;;;;23.02;nan;101605.47;5031729;28;20360;-48
2022/05/10 09:34:55;;;;;;;9.40;5.07;;;;;;;23.64;nan;101589.28;5000989;28;20040;-51
2022/05/10 09:37:20;;;;;;;6.32;4.45;;;;;;;23.93;nan;101615.66;5024734;28;20048;-53
2022/05/10 09:39:55;;;;;;;12.07;5.38;;;;;;;24.07;nan;101602.03;5031793;28;20025;-48
2022/05/10 09:42:39;;;;;;;4.90;4.40;;;;;;;24.03;nan;101592.47;5031970;28;20091;-52
2022/05/10 09:45:10;;;;;;;8.85;4.10;;;;;;;24.32;nan;101602.84;5026322;28;20033;-50
2022/05/10 09:47:36;;;;;;;5.00;4.28;;;;;;;24.37;nan;101588.06;5031587;28;20476;-51
2022/05/10 09:50:19;;;;;;;6.28;4.25;;;;;;;24.97;nan;101594.97;5026488;28;20491;-49
2022/05/10 09:52:46;;;;;;;6.53;3.63;;;;;;;25.97;nan;101600.13;4997805;28;20026;-47
2022/05/10 09:55:22;;;;;;;6.00;4.40;;;;;;;26.53;nan;101555.59;5014032;28;20364;-50
2022/05/10 09:57:49;;;;;;;8.48;4.38;;;;;;;27.23;nan;101606.13;5031513;28;20526;-51
2022/05/10 10:00:15;;;;;;;5.55;4.80;;;;;;;26.53;nan;101596.09;5031798;28;20033;-47
2022/05/10 10:02:42;;;;;;;6.15;4.20;;;;;;;25.96;nan;101609.19;5013984;28;20244;-49
2022/05/10 10:05:27;;;;;;;4.97;4.30;;;;;;;24.99;nan;101599.25;5031406;28;20045;-50
2022/05/10 10:07:55;;;;;;;7.40;5.03;;;;;;;24.74;nan;101614.78;5013854;28;20052;-48
2022/05/10 10:10:31;;;;;;;6.55;4.13;;;;;;;24.55;nan;101634.22;5031458;28;20053;-47
2022/05/10 10:12:58;;;;;;;8.07;4.35;;;;;;;25.11;nan;101622.53;5013583;28;20044;-46
2022/05/10 10:15:38;;;;;;;11.38;4.05;;;;;;;25.98;nan;101618.88;4997010;28;20392;-46
2022/05/10 10:18:12;;;;;;;9.55;4.03;;;;;;;26.33;nan;101585.38;5013120;28;20037;-48
2022/05/10 10:20:43;;;;;;;7.38;3.38;;;;;;;26.67;nan;101579.59;5028029;28;20033;-56
2022/05/10 10:23:29;;;;;;;8.35;4.18;;;;;;;26.76;nan;101569.81;5005814;28;20886;-48
2022/05/10 10:26:03;;;;;;;7.32;3.70;;;;;;;27.46;nan;101618.44;5021456;28;20029;-50
2022/05/10 10:28:38;;;;;;;9.25;4.05;;;;;;;27.27;nan;101616.50;5031230;28;20108;-45
2022/05/10 10:31:17;;;;;;;8.02;4.35;;;;;;;27.33;nan;101613.25;5039245;28;20076;-50
2022/05/10 10:33:54;;;;;;;10.80;4.68;;;;;;;27.04;nan;101611.44;5030612;28;20029;-46
2022/05/10 10:36:59;;;;;;;8.43;3.63;;;;;;;26.75;nan;101624.81;5029876;28;20044;-46
2022/05/10 10:39:29;;;;;;;8.73;3.90;;;;;;;26.49;nan;101620.81;5009541;28;20061;-44
2022/05/10 10:41:54;;;;;;;7.07;4.03;;;;;;;26.44;nan;101620.38;5030885;28;20469;-44
2022/05/10 10:44:24;;;;;;;8.70;4.27;;;;;;;26.16;nan;101629.97;5031076;28;20044;-45
2022/05/10 10:47:11;;;;;;;4.57;3.83;;;;;;;25.56;nan;101615.25;5029659;28;20655;-50
2022/05/10 10:49:45;;;;;;;4.93;3.58;;;;;;;25.82;nan;101614.91;5012872;28;20032;-48
2022/05/10 10:52:12;;;;;;;12.10;3.53;;;;;;;26.07;nan;101614.53;5030954;28;20132;-44
2022/05/10 10:54:37;;;;;;;8.65;3.25;;;;;;;26.02;nan;101614.94;5029482;28;20048;-44
2022/05/10 10:57:49;;;;;;;7.55;3.55;;;;;;;25.71;nan;101611.25;5024706;28;20033;-44
2022/05/10 11:00:17;;;;;;;6.35;3.30;;;;;;;25.55;nan;101564.13;4985362;28;20052;-46
2022/05/10 11:02:56;;;;;;;4.80;3.10;;;;;;;26.06;nan;101602.91;5018810;28;20029;-50
2022/05/10 11:05:36;;;;;;;11.80;3.25;;;;;;;26.32;nan;101602.53;5020757;28;20037;-45
2022/05/10 11:08:14;;;;;;;5.95;3.10;;;;;;;26.69;nan;101599.19;5030480;28;20041;-43
2022/05/10 11:10:51;;;;;;;7.57;2.53;;;;;;;27.20;nan;101614.50;5030689;28;20029;-45
2022/05/10 11:13:38;;;;;;;7.38;3.15;;;;;;;27.41;nan;101609.84;5030560;28;20124;-45
2022/05/10 11:16:24;;;;;;;5.10;3.80;;;;;;;27.04;nan;101617.72;5030379;28;20096;-46
2022/05/10 11:19:01;;;;;;;6.85;3.47;;;;;;;26.50;nan;101560.44;5030640;28;20064;-45
2022/05/10 11:21:38;;;;;;;8.07;4.10;;;;;;;26.53;nan;101588.00;5030232;28;20033;-44
2022/05/10 11:24:10;;;;;;;6.85;3.83;;;;;;;26.17;nan;101569.63;5013309;28;20049;-46
2022/05/10 11:26:45;;;;;;;6.05;3.60;;;;;;;26.03;nan;101541.13;5029292;28;20029;-45
2022/05/10 11:29:24;;;;;;;7.40;3.42;;;;;;;26.32;nan;101591.75;5013701;28;20029;-46
2022/05/10 11:32:21;;;;;;;4.70;3.25;;;;;;;26.46;nan;101607.59;5029527;28;20029;-45
2022/05/10 11:35:08;;;;;;;6.47;3.40;;;;;;;26.33;nan;101601.56;5028757;28;20041;-48
2022/05/10 11:37:46;;;;;;;6.07;2.92;;;;;;;26.54;nan;101564.56;5030444;28;20056;-48
2022/05/10 11:40:35;;;;;;;7.32;3.47;;;;;;;26.90;nan;101592.91;5030374;28;20353;-46
2022/05/10 11:43:46;;;;;;;6.18;3.10;;;;;;;26.83;nan;101561.03;5031073;28;20037;-47
2022/05/10 11:46:12;;;;;;;5.22;2.83;;;;;;;27.52;nan;101592.69;5028060;28;20037;-47
2022/05/10 11:48:41;;;;;;;5.73;2.80;;;;;;;27.25;nan;101596.00;5030785;28;20033;-45
2022/05/10 11:54:04;;;;;;;7.13;2.88;;;;;;;26.56;nan;101590.44;5030892;28;20099;-51
2022/05/10 11:56:34;;;;;;;7.72;2.38;;;;;;;26.56;nan;101584.22;5028924;28;20618;-50
2022/05/10 11:59:03;;;;;;;3.25;2.35;;;;;;;26.35;nan;101545.59;5046154;28;20116;-49
2022/05/10 12:01:50;;;;;;;6.63;2.92;;;;;;;26.24;nan;101601.34;5030211;28;20108;-48
2022/05/10 12:04:42;;;;;;;9.40;3.08;;;;;;;25.58;nan;101590.84;5023256;28;20025;-49
2022/05/10 12:07:20;;;;;;;9.32;2.72;;;;;;;25.10;nan;101598.41;4999050;28;20552;-53
2022/05/10 12:10:04;;;;;;;3.75;2.38;;;;;;;24.81;nan;101589.13;5030711;28;20045;-46
2022/05/10 12:12:32;;;;;;;5.97;2.50;;;;;;;24.52;nan;101584.16;5014531;28;20056;-45
2022/05/10 12:21:32;;;;;;;3.70;2.30;;;;;;;23.42;nan;101584.63;4967222;28;20096;-48
2022/05/10 12:24:03;;;;;;;5.65;2.00;;;;;;;23.39;nan;101579.50;4952817;28;20035;-48